sensor_id;sensor_type;location;lat;lon;timestamp;P1;durP1;ratioP1;P2;durP2;ratioP2
58101;SDS011;52034;51.926;6.320;2022-07-29T00:00:30;3.33;;;1.40;;
58101;SDS011;52034;51.926;6.320;2022-07-29T00:01:49;2.65;;;1.40;;
58101;SDS011;52034;51.926;6.320;2022-07-29T00:03:11;4.45;;;1.70;;
58101;SDS011;52034;51.926;6.320;2022-07-29T00:04:30;3.85;;;1.42;;
58101;SDS011;52034;51.926;6.320;2022-07-29T00:05:53;3.53;;;1.23;;
58101;SDS011;52034;51.926;6.320;2022-07-29T00:07:12;2.75;;;1.40;;
58101;SDS011;52034;51.926;6.320;2022-07-29T00:08:32;2.58;;;1.35;;
58101;SDS011;52034;51.926;6.320;2022-07-29T00:09:51;3.60;;;1.65;;
58101;SDS011;52034;51.926;6.320;2022-07-29T00:11:10;4.00;;;1.75;;
58101;SDS011;52034;51.926;6.320;2022-07-29T00:12:29;4.20;;;1.65;;
58101;SDS011;52034;51.926;6.320;2022-07-29T00:13:48;3.25;;;1.50;;
58101;SDS011;52034;51.926;6.320;2022-07-29T00:15:08;5.72;;;1.67;;
58101;SDS011;52034;51.926;6.320;2022-07-29T00:16:27;3.13;;;1.45;;
58101;SDS011;52034;51.926;6.320;2022-07-29T00:17:46;3.50;;;1.50;;
58101;SDS011;52034;51.926;6.320;2022-07-29T00:19:05;2.85;;;1.67;;
58101;SDS011;52034;51.926;6.320;2022-07-29T00:20:24;3.80;;;1.60;;
58101;SDS011;52034;51.926;6.320;2022-07-29T00:21:43;4.55;;;1.77;;
58101;SDS011;52034;51.926;6.320;2022-07-29T00:23:02;4.22;;;1.77;;
58101;SDS011;52034;51.926;6.320;2022-07-29T00:24:21;3.25;;;1.40;;
58101;SDS011;52034;51.926;6.320;2022-07-29T00:25:40;3.70;;;1.65;;
58101;SDS011;52034;51.926;6.320;2022-07-29T00:26:59;5.28;;;1.80;;
58101;SDS011;52034;51.926;6.320;2022-07-29T00:28:19;2.40;;;1.55;;
58101;SDS011;52034;51.926;6.320;2022-07-29T00:29:38;3.45;;;1.60;;
58101;SDS011;52034;51.926;6.320;2022-07-29T00:30:57;2.83;;;1.45;;
58101;SDS011;52034;51.926;6.320;2022-07-29T00:32:16;2.83;;;1.35;;
58101;SDS011;52034;51.926;6.320;2022-07-29T00:33:35;3.20;;;1.50;;
58101;SDS011;52034;51.926;6.320;2022-07-29T00:34:54;3.33;;;1.70;;
58101;SDS011;52034;51.926;6.320;2022-07-29T00:36:32;5.60;;;1.92;;
58101;SDS011;52034;51.926;6.320;2022-07-29T00:37:51;3.67;;;1.67;;
58101;SDS011;52034;51.926;6.320;2022-07-29T00:39:10;1.73;;;1.20;;
58101;SDS011;52034;51.926;6.320;2022-07-29T00:40:29;4.80;;;1.30;;
58101;SDS011;52034;51.926;6.320;2022-07-29T00:41:48;4.18;;;1.60;;
58101;SDS011;52034;51.926;6.320;2022-07-29T00:43:08;3.67;;;1.50;;
58101;SDS011;52034;51.926;6.320;2022-07-29T00:44:27;4.07;;;1.60;;
58101;SDS011;52034;51.926;6.320;2022-07-29T00:45:46;2.90;;;1.60;;
58101;SDS011;52034;51.926;6.320;2022-07-29T00:47:06;3.58;;;1.60;;
58101;SDS011;52034;51.926;6.320;2022-07-29T00:48:26;2.47;;;1.60;;
58101;SDS011;52034;51.926;6.320;2022-07-29T00:49:45;2.38;;;1.38;;
58101;SDS011;52034;51.926;6.320;2022-07-29T00:51:05;6.95;;;1.70;;
58101;SDS011;52034;51.926;6.320;2022-07-29T00:52:24;2.78;;;1.52;;
58101;SDS011;52034;51.926;6.320;2022-07-29T00:53:43;5.22;;;1.98;;
58101;SDS011;52034;51.926;6.320;2022-07-29T00:55:03;3.85;;;1.80;;
58101;SDS011;52034;51.926;6.320;2022-07-29T00:56:23;3.78;;;1.60;;
58101;SDS011;52034;51.926;6.320;2022-07-29T00:57:42;3.38;;;1.90;;
58101;SDS011;52034;51.926;6.320;2022-07-29T00:59:01;3.10;;;1.65;;
58101;SDS011;52034;51.926;6.320;2022-07-29T01:00:22;4.53;;;1.98;;
58101;SDS011;52034;51.926;6.320;2022-07-29T01:01:42;7.43;;;1.85;;
58101;SDS011;52034;51.926;6.320;2022-07-29T01:03:02;3.70;;;1.85;;
58101;SDS011;52034;51.926;6.320;2022-07-29T01:04:21;4.57;;;1.75;;
58101;SDS011;52034;51.926;6.320;2022-07-29T01:05:41;2.10;;;1.50;;
58101;SDS011;52034;51.926;6.320;2022-07-29T01:07:02;3.75;;;1.67;;
58101;SDS011;52034;51.926;6.320;2022-07-29T01:08:21;3.20;;;1.38;;
58101;SDS011;52034;51.926;6.320;2022-07-29T01:09:42;2.97;;;1.70;;
58101;SDS011;52034;51.926;6.320;2022-07-29T01:11:02;2.97;;;2.00;;
58101;SDS011;52034;51.926;6.320;2022-07-29T01:12:24;5.05;;;1.83;;
58101;SDS011;52034;51.926;6.320;2022-07-29T01:13:44;4.53;;;1.83;;
58101;SDS011;52034;51.926;6.320;2022-07-29T01:15:05;2.97;;;1.77;;
58101;SDS011;52034;51.926;6.320;2022-07-29T01:16:28;2.13;;;1.67;;
58101;SDS011;52034;51.926;6.320;2022-07-29T01:17:56;1.98;;;1.55;;
58101;SDS011;52034;51.926;6.320;2022-07-29T01:26:35;7.55;;;2.25;;
58101;SDS011;52034;51.926;6.320;2022-07-29T01:28:08;4.25;;;1.77;;
58101;SDS011;52034;51.926;6.320;2022-07-29T01:29:53;4.15;;;1.80;;
58101;SDS011;52034;51.926;6.320;2022-07-29T01:31:19;2.13;;;1.80;;
58101;SDS011;52034;51.926;6.320;2022-07-29T01:32:39;3.45;;;1.80;;
58101;SDS011;52034;51.926;6.320;2022-07-29T01:34:01;3.15;;;1.88;;
58101;SDS011;52034;51.926;6.320;2022-07-29T01:35:31;5.22;;;1.70;;
58101;SDS011;52034;51.926;6.320;2022-07-29T01:36:55;3.30;;;1.83;;
58101;SDS011;52034;51.926;6.320;2022-07-29T01:38:20;5.03;;;1.95;;
58101;SDS011;52034;51.926;6.320;2022-07-29T01:39:40;2.67;;;1.70;;
58101;SDS011;52034;51.926;6.320;2022-07-29T01:41:08;5.90;;;2.10;;
58101;SDS011;52034;51.926;6.320;2022-07-29T01:42:44;3.97;;;1.60;;
58101;SDS011;52034;51.926;6.320;2022-07-29T01:44:09;3.95;;;2.00;;
58101;SDS011;52034;51.926;6.320;2022-07-29T01:45:33;3.10;;;1.67;;
58101;SDS011;52034;51.926;6.320;2022-07-29T01:46:56;3.53;;;1.60;;
58101;SDS011;52034;51.926;6.320;2022-07-29T01:48:29;4.50;;;1.80;;
58101;SDS011;52034;51.926;6.320;2022-07-29T01:49:50;3.28;;;1.83;;
58101;SDS011;52034;51.926;6.320;2022-07-29T01:51:12;4.40;;;2.15;;
58101;SDS011;52034;51.926;6.320;2022-07-29T01:52:36;3.38;;;1.60;;
58101;SDS011;52034;51.926;6.320;2022-07-29T01:54:02;3.65;;;2.00;;
58101;SDS011;52034;51.926;6.320;2022-07-29T01:55:27;4.68;;;1.60;;
58101;SDS011;52034;51.926;6.320;2022-07-29T01:58:08;6.65;;;2.10;;
58101;SDS011;52034;51.926;6.320;2022-07-29T01:59:27;5.03;;;2.00;;
58101;SDS011;52034;51.926;6.320;2022-07-29T02:00:48;2.50;;;1.70;;
58101;SDS011;52034;51.926;6.320;2022-07-29T02:02:08;2.10;;;1.90;;
58101;SDS011;52034;51.926;6.320;2022-07-29T02:03:28;2.25;;;1.70;;
58101;SDS011;52034;51.926;6.320;2022-07-29T02:04:50;4.47;;;1.80;;
58101;SDS011;52034;51.926;6.320;2022-07-29T02:06:10;3.25;;;2.53;;
58101;SDS011;52034;51.926;6.320;2022-07-29T02:07:30;3.10;;;1.90;;
58101;SDS011;52034;51.926;6.320;2022-07-29T02:08:51;4.03;;;2.10;;
58101;SDS011;52034;51.926;6.320;2022-07-29T02:10:11;3.85;;;1.92;;
58101;SDS011;52034;51.926;6.320;2022-07-29T02:11:31;2.60;;;1.85;;
58101;SDS011;52034;51.926;6.320;2022-07-29T02:12:51;5.00;;;1.80;;
58101;SDS011;52034;51.926;6.320;2022-07-29T02:14:13;6.07;;;1.98;;
58101;SDS011;52034;51.926;6.320;2022-07-29T02:15:33;3.53;;;1.73;;
58101;SDS011;52034;51.926;6.320;2022-07-29T02:16:53;3.08;;;1.88;;
58101;SDS011;52034;51.926;6.320;2022-07-29T02:18:17;3.13;;;2.03;;
58101;SDS011;52034;51.926;6.320;2022-07-29T02:19:37;3.00;;;1.70;;
58101;SDS011;52034;51.926;6.320;2022-07-29T02:20:58;4.05;;;2.00;;
58101;SDS011;52034;51.926;6.320;2022-07-29T02:22:18;2.83;;;2.15;;
58101;SDS011;52034;51.926;6.320;2022-07-29T02:23:37;4.10;;;1.92;;
58101;SDS011;52034;51.926;6.320;2022-07-29T02:24:58;3.08;;;2.00;;
58101;SDS011;52034;51.926;6.320;2022-07-29T02:26:19;3.13;;;2.15;;
58101;SDS011;52034;51.926;6.320;2022-07-29T02:27:39;5.03;;;2.05;;
58101;SDS011;52034;51.926;6.320;2022-07-29T02:28:59;2.90;;;2.17;;
58101;SDS011;52034;51.926;6.320;2022-07-29T02:30:19;3.08;;;2.03;;
58101;SDS011;52034;51.926;6.320;2022-07-29T02:31:41;5.53;;;2.33;;
58101;SDS011;52034;51.926;6.320;2022-07-29T02:33:02;2.45;;;2.22;;
58101;SDS011;52034;51.926;6.320;2022-07-29T02:34:21;4.35;;;2.15;;
58101;SDS011;52034;51.926;6.320;2022-07-29T02:35:42;3.67;;;2.00;;
58101;SDS011;52034;51.926;6.320;2022-07-29T02:37:02;6.70;;;2.00;;
58101;SDS011;52034;51.926;6.320;2022-07-29T02:38:22;5.43;;;2.58;;
58101;SDS011;52034;51.926;6.320;2022-07-29T02:40:03;3.03;;;2.20;;
58101;SDS011;52034;51.926;6.320;2022-07-29T02:41:23;3.60;;;1.85;;
58101;SDS011;52034;51.926;6.320;2022-07-29T02:42:46;5.15;;;2.38;;
58101;SDS011;52034;51.926;6.320;2022-07-29T02:44:12;3.30;;;2.30;;
58101;SDS011;52034;51.926;6.320;2022-07-29T02:45:36;4.00;;;2.28;;
58101;SDS011;52034;51.926;6.320;2022-07-29T02:48:22;4.25;;;2.28;;
58101;SDS011;52034;51.926;6.320;2022-07-29T02:51:33;4.20;;;2.13;;
58101;SDS011;52034;51.926;6.320;2022-07-29T02:53:07;2.38;;;2.05;;
58101;SDS011;52034;51.926;6.320;2022-07-29T02:55:02;3.25;;;1.98;;
58101;SDS011;52034;51.926;6.320;2022-07-29T02:56:34;7.60;;;2.45;;
58101;SDS011;52034;51.926;6.320;2022-07-29T02:59:16;4.93;;;2.50;;
58101;SDS011;52034;51.926;6.320;2022-07-29T03:00:40;4.25;;;2.17;;
58101;SDS011;52034;51.926;6.320;2022-07-29T03:01:59;2.60;;;2.40;;
58101;SDS011;52034;51.926;6.320;2022-07-29T03:03:19;2.90;;;2.50;;
58101;SDS011;52034;51.926;6.320;2022-07-29T03:04:40;8.52;;;2.75;;
58101;SDS011;52034;51.926;6.320;2022-07-29T03:06:01;3.67;;;2.55;;
58101;SDS011;52034;51.926;6.320;2022-07-29T03:07:20;2.92;;;2.22;;
58101;SDS011;52034;51.926;6.320;2022-07-29T03:08:39;5.25;;;2.75;;
58101;SDS011;52034;51.926;6.320;2022-07-29T03:09:58;4.25;;;2.20;;
58101;SDS011;52034;51.926;6.320;2022-07-29T03:11:18;4.43;;;2.60;;
58101;SDS011;52034;51.926;6.320;2022-07-29T03:12:37;3.55;;;2.25;;
58101;SDS011;52034;51.926;6.320;2022-07-29T03:13:57;7.55;;;2.50;;
58101;SDS011;52034;51.926;6.320;2022-07-29T03:15:16;3.38;;;1.98;;
58101;SDS011;52034;51.926;6.320;2022-07-29T03:16:35;5.43;;;2.40;;
58101;SDS011;52034;51.926;6.320;2022-07-29T03:17:55;4.53;;;2.50;;
58101;SDS011;52034;51.926;6.320;2022-07-29T03:19:14;4.28;;;2.28;;
58101;SDS011;52034;51.926;6.320;2022-07-29T03:20:33;4.32;;;2.88;;
58101;SDS011;52034;51.926;6.320;2022-07-29T03:21:54;5.22;;;2.80;;
58101;SDS011;52034;51.926;6.320;2022-07-29T03:23:18;3.67;;;2.38;;
58101;SDS011;52034;51.926;6.320;2022-07-29T03:24:38;5.22;;;2.75;;
58101;SDS011;52034;51.926;6.320;2022-07-29T03:25:57;3.17;;;2.42;;
58101;SDS011;52034;51.926;6.320;2022-07-29T03:27:16;4.95;;;2.90;;
58101;SDS011;52034;51.926;6.320;2022-07-29T03:28:35;3.20;;;2.90;;
58101;SDS011;52034;51.926;6.320;2022-07-29T03:29:55;6.53;;;3.03;;
58101;SDS011;52034;51.926;6.320;2022-07-29T03:31:14;4.53;;;2.40;;
58101;SDS011;52034;51.926;6.320;2022-07-29T03:32:33;4.00;;;2.55;;
58101;SDS011;52034;51.926;6.320;2022-07-29T03:33:52;3.33;;;2.42;;
58101;SDS011;52034;51.926;6.320;2022-07-29T03:35:11;7.35;;;2.88;;
58101;SDS011;52034;51.926;6.320;2022-07-29T03:36:31;2.97;;;2.70;;
58101;SDS011;52034;51.926;6.320;2022-07-29T03:37:50;3.80;;;2.42;;
58101;SDS011;52034;51.926;6.320;2022-07-29T03:39:09;2.63;;;2.35;;
58101;SDS011;52034;51.926;6.320;2022-07-29T03:40:33;6.15;;;2.88;;
58101;SDS011;52034;51.926;6.320;2022-07-29T03:41:56;3.78;;;2.38;;
58101;SDS011;52034;51.926;6.320;2022-07-29T03:43:17;4.47;;;2.40;;
58101;SDS011;52034;51.926;6.320;2022-07-29T03:44:37;6.55;;;2.63;;
58101;SDS011;52034;51.926;6.320;2022-07-29T03:45:58;3.03;;;2.80;;
58101;SDS011;52034;51.926;6.320;2022-07-29T03:47:20;3.50;;;2.30;;
58101;SDS011;52034;51.926;6.320;2022-07-29T03:48:42;5.50;;;2.58;;
58101;SDS011;52034;51.926;6.320;2022-07-29T03:50:02;4.82;;;2.70;;
58101;SDS011;52034;51.926;6.320;2022-07-29T03:51:25;5.28;;;2.25;;
58101;SDS011;52034;51.926;6.320;2022-07-29T03:52:45;4.60;;;2.67;;
58101;SDS011;52034;51.926;6.320;2022-07-29T03:54:04;3.30;;;2.50;;
58101;SDS011;52034;51.926;6.320;2022-07-29T03:55:24;3.90;;;2.63;;
58101;SDS011;52034;51.926;6.320;2022-07-29T03:56:45;5.00;;;2.85;;
58101;SDS011;52034;51.926;6.320;2022-07-29T03:58:05;3.85;;;2.28;;
58101;SDS011;52034;51.926;6.320;2022-07-29T03:59:26;7.95;;;2.67;;
58101;SDS011;52034;51.926;6.320;2022-07-29T04:00:46;3.00;;;2.17;;
58101;SDS011;52034;51.926;6.320;2022-07-29T04:02:05;3.08;;;2.60;;
58101;SDS011;52034;51.926;6.320;2022-07-29T04:03:27;4.38;;;2.70;;
58101;SDS011;52034;51.926;6.320;2022-07-29T04:04:46;4.95;;;2.47;;
58101;SDS011;52034;51.926;6.320;2022-07-29T04:06:06;4.40;;;2.50;;
58101;SDS011;52034;51.926;6.320;2022-07-29T04:07:25;6.03;;;2.85;;
58101;SDS011;52034;51.926;6.320;2022-07-29T04:08:44;4.07;;;2.55;;
58101;SDS011;52034;51.926;6.320;2022-07-29T04:10:03;3.67;;;2.38;;
58101;SDS011;52034;51.926;6.320;2022-07-29T04:11:22;3.17;;;2.78;;
58101;SDS011;52034;51.926;6.320;2022-07-29T04:12:41;7.50;;;2.75;;
58101;SDS011;52034;51.926;6.320;2022-07-29T04:14:00;4.13;;;2.80;;
58101;SDS011;52034;51.926;6.320;2022-07-29T04:15:20;3.28;;;2.80;;
58101;SDS011;52034;51.926;6.320;2022-07-29T04:16:39;6.32;;;3.33;;
58101;SDS011;52034;51.926;6.320;2022-07-29T04:17:58;5.20;;;3.15;;
58101;SDS011;52034;51.926;6.320;2022-07-29T04:19:17;4.43;;;3.00;;
58101;SDS011;52034;51.926;6.320;2022-07-29T04:20:36;8.73;;;3.05;;
58101;SDS011;52034;51.926;6.320;2022-07-29T04:21:56;5.78;;;2.50;;
58101;SDS011;52034;51.926;6.320;2022-07-29T04:23:15;4.75;;;2.60;;
58101;SDS011;52034;51.926;6.320;2022-07-29T04:24:34;5.05;;;2.65;;
58101;SDS011;52034;51.926;6.320;2022-07-29T04:25:53;3.08;;;2.78;;
58101;SDS011;52034;51.926;6.320;2022-07-29T04:27:12;4.45;;;2.90;;
58101;SDS011;52034;51.926;6.320;2022-07-29T04:28:31;8.18;;;3.13;;
58101;SDS011;52034;51.926;6.320;2022-07-29T04:29:50;7.45;;;3.38;;
58101;SDS011;52034;51.926;6.320;2022-07-29T04:31:10;6.22;;;3.17;;
58101;SDS011;52034;51.926;6.320;2022-07-29T04:32:29;5.18;;;3.10;;
58101;SDS011;52034;51.926;6.320;2022-07-29T04:33:48;4.60;;;3.00;;
58101;SDS011;52034;51.926;6.320;2022-07-29T04:35:07;4.40;;;3.30;;
58101;SDS011;52034;51.926;6.320;2022-07-29T04:36:26;7.05;;;3.22;;
58101;SDS011;52034;51.926;6.320;2022-07-29T04:37:45;5.60;;;2.83;;
58101;SDS011;52034;51.926;6.320;2022-07-29T04:39:05;4.65;;;2.90;;
58101;SDS011;52034;51.926;6.320;2022-07-29T04:40:24;4.70;;;3.40;;
58101;SDS011;52034;51.926;6.320;2022-07-29T04:41:44;5.38;;;3.25;;
58101;SDS011;52034;51.926;6.320;2022-07-29T04:43:03;4.32;;;3.10;;
58101;SDS011;52034;51.926;6.320;2022-07-29T04:44:22;4.07;;;3.30;;
58101;SDS011;52034;51.926;6.320;2022-07-29T04:45:41;4.15;;;3.50;;
58101;SDS011;52034;51.926;6.320;2022-07-29T04:47:00;4.80;;;3.42;;
58101;SDS011;52034;51.926;6.320;2022-07-29T04:48:19;5.18;;;3.30;;
58101;SDS011;52034;51.926;6.320;2022-07-29T04:49:38;5.78;;;3.42;;
58101;SDS011;52034;51.926;6.320;2022-07-29T04:50:57;7.75;;;3.60;;
58101;SDS011;52034;51.926;6.320;2022-07-29T04:52:16;5.65;;;3.35;;
58101;SDS011;52034;51.926;6.320;2022-07-29T04:53:36;5.30;;;3.30;;
58101;SDS011;52034;51.926;6.320;2022-07-29T04:54:54;6.38;;;3.30;;
58101;SDS011;52034;51.926;6.320;2022-07-29T04:56:14;5.97;;;3.75;;
58101;SDS011;52034;51.926;6.320;2022-07-29T04:57:33;5.63;;;3.70;;
58101;SDS011;52034;51.926;6.320;2022-07-29T04:58:53;4.00;;;3.65;;
58101;SDS011;52034;51.926;6.320;2022-07-29T05:00:12;4.78;;;3.35;;
58101;SDS011;52034;51.926;6.320;2022-07-29T05:01:31;5.55;;;3.92;;
58101;SDS011;52034;51.926;6.320;2022-07-29T05:02:50;5.38;;;3.42;;
58101;SDS011;52034;51.926;6.320;2022-07-29T05:04:10;4.78;;;3.70;;
58101;SDS011;52034;51.926;6.320;2022-07-29T05:05:29;6.75;;;3.60;;
58101;SDS011;52034;51.926;6.320;2022-07-29T05:06:48;7.70;;;3.40;;
58101;SDS011;52034;51.926;6.320;2022-07-29T05:08:07;3.53;;;3.22;;
58101;SDS011;52034;51.926;6.320;2022-07-29T05:09:26;8.00;;;3.90;;
58101;SDS011;52034;51.926;6.320;2022-07-29T05:10:45;7.70;;;3.60;;
58101;SDS011;52034;51.926;6.320;2022-07-29T05:12:04;6.07;;;3.65;;
58101;SDS011;52034;51.926;6.320;2022-07-29T05:13:24;10.60;;;4.00;;
58101;SDS011;52034;51.926;6.320;2022-07-29T05:14:43;4.30;;;3.53;;
58101;SDS011;52034;51.926;6.320;2022-07-29T05:16:02;6.97;;;3.53;;
58101;SDS011;52034;51.926;6.320;2022-07-29T05:17:21;5.88;;;3.55;;
58101;SDS011;52034;51.926;6.320;2022-07-29T05:18:41;6.32;;;3.60;;
58101;SDS011;52034;51.926;6.320;2022-07-29T05:20:01;5.57;;;3.45;;
58101;SDS011;52034;51.926;6.320;2022-07-29T05:21:20;7.82;;;4.25;;
58101;SDS011;52034;51.926;6.320;2022-07-29T05:22:39;4.95;;;3.70;;
58101;SDS011;52034;51.926;6.320;2022-07-29T05:23:59;4.80;;;3.65;;
58101;SDS011;52034;51.926;6.320;2022-07-29T05:25:18;7.35;;;4.13;;
58101;SDS011;52034;51.926;6.320;2022-07-29T05:26:37;5.38;;;3.70;;
58101;SDS011;52034;51.926;6.320;2022-07-29T05:27:57;5.55;;;3.80;;
58101;SDS011;52034;51.926;6.320;2022-07-29T05:29:16;7.43;;;3.88;;
58101;SDS011;52034;51.926;6.320;2022-07-29T05:30:35;5.32;;;3.75;;
58101;SDS011;52034;51.926;6.320;2022-07-29T05:31:55;8.30;;;3.88;;
58101;SDS011;52034;51.926;6.320;2022-07-29T05:33:14;4.95;;;4.25;;
58101;SDS011;52034;51.926;6.320;2022-07-29T05:34:33;7.63;;;3.95;;
58101;SDS011;52034;51.926;6.320;2022-07-29T05:35:52;5.40;;;3.53;;
58101;SDS011;52034;51.926;6.320;2022-07-29T05:37:12;4.68;;;4.05;;
58101;SDS011;52034;51.926;6.320;2022-07-29T05:38:32;4.68;;;3.38;;
58101;SDS011;52034;51.926;6.320;2022-07-29T05:39:51;5.90;;;3.47;;
58101;SDS011;52034;51.926;6.320;2022-07-29T05:41:11;5.85;;;3.55;;
58101;SDS011;52034;51.926;6.320;2022-07-29T05:42:30;4.88;;;3.30;;
58101;SDS011;52034;51.926;6.320;2022-07-29T05:43:49;4.47;;;3.75;;
58101;SDS011;52034;51.926;6.320;2022-07-29T05:45:08;4.53;;;3.80;;
58101;SDS011;52034;51.926;6.320;2022-07-29T05:46:27;5.32;;;3.72;;
58101;SDS011;52034;51.926;6.320;2022-07-29T05:47:46;8.90;;;3.45;;
58101;SDS011;52034;51.926;6.320;2022-07-29T05:49:05;5.60;;;3.58;;
58101;SDS011;52034;51.926;6.320;2022-07-29T05:50:26;5.00;;;3.47;;
58101;SDS011;52034;51.926;6.320;2022-07-29T05:51:45;6.78;;;3.35;;
58101;SDS011;52034;51.926;6.320;2022-07-29T05:53:04;3.88;;;3.55;;
58101;SDS011;52034;51.926;6.320;2022-07-29T05:54:24;5.43;;;3.83;;
58101;SDS011;52034;51.926;6.320;2022-07-29T05:55:43;5.03;;;3.83;;
58101;SDS011;52034;51.926;6.320;2022-07-29T05:57:02;4.40;;;3.55;;
58101;SDS011;52034;51.926;6.320;2022-07-29T05:58:22;5.95;;;3.35;;
58101;SDS011;52034;51.926;6.320;2022-07-29T05:59:40;4.75;;;3.72;;
58101;SDS011;52034;51.926;6.320;2022-07-29T06:01:00;4.55;;;3.30;;
58101;SDS011;52034;51.926;6.320;2022-07-29T06:02:19;7.70;;;3.78;;
58101;SDS011;52034;51.926;6.320;2022-07-29T06:03:38;4.55;;;3.70;;
58101;SDS011;52034;51.926;6.320;2022-07-29T06:04:57;4.03;;;3.63;;
58101;SDS011;52034;51.926;6.320;2022-07-29T06:06:16;4.20;;;3.65;;
58101;SDS011;52034;51.926;6.320;2022-07-29T06:07:35;5.22;;;3.75;;
58101;SDS011;52034;51.926;6.320;2022-07-29T06:08:54;5.97;;;3.72;;
58101;SDS011;52034;51.926;6.320;2022-07-29T06:10:13;5.28;;;3.70;;
58101;SDS011;52034;51.926;6.320;2022-07-29T06:11:32;3.92;;;3.45;;
58101;SDS011;52034;51.926;6.320;2022-07-29T06:12:52;4.90;;;3.22;;
58101;SDS011;52034;51.926;6.320;2022-07-29T06:14:11;4.75;;;3.60;;
58101;SDS011;52034;51.926;6.320;2022-07-29T06:15:30;5.93;;;4.00;;
58101;SDS011;52034;51.926;6.320;2022-07-29T06:16:49;3.90;;;3.50;;
58101;SDS011;52034;51.926;6.320;2022-07-29T06:18:09;4.20;;;3.83;;
58101;SDS011;52034;51.926;6.320;2022-07-29T06:19:29;5.32;;;3.70;;
58101;SDS011;52034;51.926;6.320;2022-07-29T06:20:48;4.05;;;3.65;;
58101;SDS011;52034;51.926;6.320;2022-07-29T06:22:07;5.32;;;3.60;;
58101;SDS011;52034;51.926;6.320;2022-07-29T06:23:26;7.15;;;3.90;;
58101;SDS011;52034;51.926;6.320;2022-07-29T06:24:45;4.93;;;3.60;;
58101;SDS011;52034;51.926;6.320;2022-07-29T06:26:04;4.53;;;3.78;;
58101;SDS011;52034;51.926;6.320;2022-07-29T06:27:23;4.60;;;3.72;;
58101;SDS011;52034;51.926;6.320;2022-07-29T06:28:42;4.15;;;3.45;;
58101;SDS011;52034;51.926;6.320;2022-07-29T06:30:02;4.35;;;3.30;;
58101;SDS011;52034;51.926;6.320;2022-07-29T06:31:21;6.35;;;3.83;;
58101;SDS011;52034;51.926;6.320;2022-07-29T06:32:41;4.85;;;2.97;;
58101;SDS011;52034;51.926;6.320;2022-07-29T06:34:00;3.60;;;3.30;;
58101;SDS011;52034;51.926;6.320;2022-07-29T06:35:19;6.35;;;3.50;;
58101;SDS011;52034;51.926;6.320;2022-07-29T06:36:38;3.65;;;3.28;;
58101;SDS011;52034;51.926;6.320;2022-07-29T06:37:57;5.93;;;3.60;;
58101;SDS011;52034;51.926;6.320;2022-07-29T06:39:17;4.70;;;3.03;;
58101;SDS011;52034;51.926;6.320;2022-07-29T06:40:36;4.40;;;3.20;;
58101;SDS011;52034;51.926;6.320;2022-07-29T06:42:14;4.63;;;3.10;;
58101;SDS011;52034;51.926;6.320;2022-07-29T06:43:37;4.68;;;3.53;;
58101;SDS011;52034;51.926;6.320;2022-07-29T06:44:57;5.70;;;3.65;;
58101;SDS011;52034;51.926;6.320;2022-07-29T06:46:17;5.40;;;3.80;;
58101;SDS011;52034;51.926;6.320;2022-07-29T06:47:37;4.28;;;3.55;;
58101;SDS011;52034;51.926;6.320;2022-07-29T06:48:56;6.25;;;3.72;;
58101;SDS011;52034;51.926;6.320;2022-07-29T06:50:15;4.95;;;3.65;;
58101;SDS011;52034;51.926;6.320;2022-07-29T06:51:34;5.60;;;3.60;;
58101;SDS011;52034;51.926;6.320;2022-07-29T06:52:53;6.22;;;3.90;;
58101;SDS011;52034;51.926;6.320;2022-07-29T06:54:12;6.15;;;3.85;;
58101;SDS011;52034;51.926;6.320;2022-07-29T06:55:31;6.13;;;3.90;;
58101;SDS011;52034;51.926;6.320;2022-07-29T06:56:50;6.60;;;3.95;;
58101;SDS011;52034;51.926;6.320;2022-07-29T06:58:10;4.35;;;3.65;;
58101;SDS011;52034;51.926;6.320;2022-07-29T06:59:29;4.72;;;3.70;;
58101;SDS011;52034;51.926;6.320;2022-07-29T07:00:48;5.40;;;4.00;;
58101;SDS011;52034;51.926;6.320;2022-07-29T07:02:07;4.80;;;4.13;;
58101;SDS011;52034;51.926;6.320;2022-07-29T07:03:27;5.90;;;3.92;;
58101;SDS011;52034;51.926;6.320;2022-07-29T07:04:45;4.63;;;3.72;;
58101;SDS011;52034;51.926;6.320;2022-07-29T07:06:05;6.72;;;3.83;;
58101;SDS011;52034;51.926;6.320;2022-07-29T07:07:24;10.93;;;4.20;;
58101;SDS011;52034;51.926;6.320;2022-07-29T07:08:44;4.55;;;4.15;;
58101;SDS011;52034;51.926;6.320;2022-07-29T07:10:03;5.93;;;3.90;;
58101;SDS011;52034;51.926;6.320;2022-07-29T07:11:22;5.85;;;3.90;;
58101;SDS011;52034;51.926;6.320;2022-07-29T07:12:42;5.13;;;3.75;;
58101;SDS011;52034;51.926;6.320;2022-07-29T07:14:01;5.65;;;3.55;;
58101;SDS011;52034;51.926;6.320;2022-07-29T07:15:20;4.45;;;4.00;;
58101;SDS011;52034;51.926;6.320;2022-07-29T07:16:40;6.78;;;4.32;;
58101;SDS011;52034;51.926;6.320;2022-07-29T07:17:59;7.13;;;4.18;;
58101;SDS011;52034;51.926;6.320;2022-07-29T07:19:18;4.25;;;3.38;;
58101;SDS011;52034;51.926;6.320;2022-07-29T07:20:38;4.38;;;3.67;;
58101;SDS011;52034;51.926;6.320;2022-07-29T07:21:57;4.40;;;4.00;;
58101;SDS011;52034;51.926;6.320;2022-07-29T07:23:16;5.40;;;4.05;;
58101;SDS011;52034;51.926;6.320;2022-07-29T07:24:35;6.00;;;3.72;;
58101;SDS011;52034;51.926;6.320;2022-07-29T07:25:54;4.97;;;3.72;;
58101;SDS011;52034;51.926;6.320;2022-07-29T07:27:13;5.80;;;4.00;;
58101;SDS011;52034;51.926;6.320;2022-07-29T07:28:32;5.72;;;3.60;;
58101;SDS011;52034;51.926;6.320;2022-07-29T07:29:51;4.70;;;3.72;;
58101;SDS011;52034;51.926;6.320;2022-07-29T07:31:11;5.05;;;3.60;;
58101;SDS011;52034;51.926;6.320;2022-07-29T07:32:30;5.70;;;3.38;;
58101;SDS011;52034;51.926;6.320;2022-07-29T07:33:49;6.22;;;3.63;;
58101;SDS011;52034;51.926;6.320;2022-07-29T07:35:08;5.43;;;3.60;;
58101;SDS011;52034;51.926;6.320;2022-07-29T07:36:28;4.43;;;3.17;;
58101;SDS011;52034;51.926;6.320;2022-07-29T07:37:47;7.10;;;3.38;;
58101;SDS011;52034;51.926;6.320;2022-07-29T07:39:06;4.32;;;3.35;;
58101;SDS011;52034;51.926;6.320;2022-07-29T07:40:25;5.97;;;3.70;;
58101;SDS011;52034;51.926;6.320;2022-07-29T07:41:45;6.35;;;3.80;;
58101;SDS011;52034;51.926;6.320;2022-07-29T07:43:04;5.20;;;3.75;;
58101;SDS011;52034;51.926;6.320;2022-07-29T07:44:23;4.82;;;2.70;;
58101;SDS011;52034;51.926;6.320;2022-07-29T07:45:42;5.65;;;3.33;;
58101;SDS011;52034;51.926;6.320;2022-07-29T07:47:01;5.68;;;3.40;;
58101;SDS011;52034;51.926;6.320;2022-07-29T07:48:20;8.35;;;3.80;;
58101;SDS011;52034;51.926;6.320;2022-07-29T07:49:39;7.07;;;3.97;;
58101;SDS011;52034;51.926;6.320;2022-07-29T07:50:58;5.72;;;3.72;;
58101;SDS011;52034;51.926;6.320;2022-07-29T07:52:18;5.80;;;3.88;;
58101;SDS011;52034;51.926;6.320;2022-07-29T07:53:38;6.10;;;3.78;;
58101;SDS011;52034;51.926;6.320;2022-07-29T07:54:57;5.60;;;3.80;;
58101;SDS011;52034;51.926;6.320;2022-07-29T07:56:17;5.20;;;3.70;;
58101;SDS011;52034;51.926;6.320;2022-07-29T07:57:36;5.68;;;3.75;;
58101;SDS011;52034;51.926;6.320;2022-07-29T07:58:55;7.93;;;3.50;;
58101;SDS011;52034;51.926;6.320;2022-07-29T08:00:14;5.55;;;3.92;;
58101;SDS011;52034;51.926;6.320;2022-07-29T08:01:34;5.32;;;3.72;;
58101;SDS011;52034;51.926;6.320;2022-07-29T08:02:53;4.20;;;3.58;;
58101;SDS011;52034;51.926;6.320;2022-07-29T08:04:12;6.18;;;3.60;;
58101;SDS011;52034;51.926;6.320;2022-07-29T08:05:31;6.47;;;3.78;;
58101;SDS011;52034;51.926;6.320;2022-07-29T08:06:50;7.05;;;3.72;;
58101;SDS011;52034;51.926;6.320;2022-07-29T08:08:12;7.22;;;3.80;;
58101;SDS011;52034;51.926;6.320;2022-07-29T08:09:32;5.35;;;3.72;;
58101;SDS011;52034;51.926;6.320;2022-07-29T08:10:51;4.93;;;3.70;;
58101;SDS011;52034;51.926;6.320;2022-07-29T08:12:14;5.25;;;3.90;;
58101;SDS011;52034;51.926;6.320;2022-07-29T08:13:33;5.93;;;3.70;;
58101;SDS011;52034;51.926;6.320;2022-07-29T08:14:52;4.05;;;3.65;;
58101;SDS011;52034;51.926;6.320;2022-07-29T08:16:11;9.88;;;3.95;;
58101;SDS011;52034;51.926;6.320;2022-07-29T08:17:30;6.93;;;3.92;;